Time;durP1;ratioP1;P1;durP2;ratioP2;P2;SDS_P1;SDS_P2;PMS_P1;PMS_P2;Temp;Humidity;BMP_temperature;BMP_pressure;BME280_temperature;BME280_humidity;BME280_pressure;Samples;Min_cycle;Max_cycle;Signal;HPM_P1;HPM_P2
2022/12/16 00:01:53;;;;;;;65.80;41.13;;;;;;;-3.89;95.19;100889.31;5024235;28;20113;-57
2022/12/16 00:04:18;;;;;;;65.67;40.67;;;;;;;-3.84;95.42;100896.88;5031769;28;20036;-58
2022/12/16 00:06:44;;;;;;;67.27;42.00;;;;;;;-3.79;95.39;100889.75;5020552;28;20030;-57
2022/12/16 00:09:09;;;;;;;64.10;40.50;;;;;;;-3.77;95.56;100895.72;5023108;28;20038;-58
2022/12/16 00:11:34;;;;;;;69.20;40.80;;;;;;;-3.75;95.34;100882.69;5019513;28;20038;-58
2022/12/16 00:14:00;;;;;;;68.47;39.47;;;;;;;-3.69;95.42;100880.66;5027512;28;20492;-58
2022/12/16 00:16:25;;;;;;;63.43;40.17;;;;;;;-3.66;95.42;100893.47;5021847;28;20511;-57
2022/12/16 00:18:50;;;;;;;66.83;40.23;;;;;;;-3.60;95.78;100896.72;5015375;28;20061;-58
2022/12/16 00:21:19;;;;;;;62.63;39.20;;;;;;;-3.58;95.88;100884.53;5016427;28;20661;-57
2022/12/16 00:23:44;;;;;;;63.53;38.83;;;;;;;-3.55;95.46;100884.41;5019087;28;20090;-57
2022/12/16 00:26:10;;;;;;;58.80;38.73;;;;;;;-3.54;95.41;100875.69;5026634;28;20125;-57
2022/12/16 00:28:36;;;;;;;62.00;38.43;;;;;;;-3.49;95.96;100876.34;5019124;28;20049;-57
2022/12/16 00:31:02;;;;;;;67.07;38.80;;;;;;;-3.47;95.61;100871.09;5024710;28;20052;-57
2022/12/16 00:33:28;;;;;;;65.77;38.30;;;;;;;-3.44;95.57;100876.97;5026017;28;20021;-57
2022/12/16 00:35:54;;;;;;;59.77;37.73;;;;;;;-3.41;95.77;100873.41;5022421;28;20026;-57
2022/12/16 00:38:20;;;;;;;60.60;39.27;;;;;;;-3.38;95.49;100871.50;5026124;28;20028;-56
2022/12/16 00:40:46;;;;;;;62.80;38.43;;;;;;;-3.39;95.61;100877.59;5022262;28;20116;-58
2022/12/16 00:43:11;;;;;;;61.83;36.60;;;;;;;-3.35;95.51;100880.06;5025308;28;20507;-57
2022/12/16 00:45:38;;;;;;;62.17;37.07;;;;;;;-3.34;95.69;100879.13;5021105;28;20030;-55
2022/12/16 00:48:03;;;;;;;56.10;36.67;;;;;;;-3.31;95.64;100881.59;5020136;28;20048;-57
2022/12/16 00:50:29;;;;;;;62.33;38.17;;;;;;;-3.28;95.91;100881.44;5019714;28;20029;-56
2022/12/16 00:52:54;;;;;;;61.33;37.43;;;;;;;-3.24;95.83;100883.00;5021300;28;20044;-57
2022/12/16 00:55:19;;;;;;;60.90;38.00;;;;;;;-3.20;96.61;100879.34;5022381;28;20021;-58
2022/12/16 00:57:45;;;;;;;59.97;38.43;;;;;;;-3.16;96.73;100886.06;5021420;28;20076;-57
2022/12/16 01:00:13;;;;;;;57.03;37.87;;;;;;;-3.18;96.62;100882.72;5022294;28;20909;-60
2022/12/16 01:02:43;;;;;;;62.17;38.13;;;;;;;-3.13;96.59;100879.91;5023190;28;20147;-58
2022/12/16 01:05:09;;;;;;;60.03;39.27;;;;;;;-3.11;96.78;100878.91;5018562;28;20044;-57
2022/12/16 01:07:35;;;;;;;60.30;38.57;;;;;;;-3.08;96.65;100882.25;5014350;28;20109;-57
2022/12/16 01:10:01;;;;;;;64.73;40.17;;;;;;;-3.08;97.02;100892.66;5028518;28;20125;-57
2022/12/16 01:12:26;;;;;;;62.70;39.40;;;;;;;-3.08;97.81;100893.50;5026850;28;20069;-58
2022/12/16 01:14:52;;;;;;;59.07;38.23;;;;;;;-3.07;97.37;100899.53;5024221;28;20045;-57
2022/12/16 01:17:17;;;;;;;64.33;39.20;;;;;;;-3.08;97.37;100900.44;5023414;28;20056;-58
2022/12/16 01:19:42;;;;;;;62.80;39.30;;;;;;;-3.07;97.35;100909.91;5027861;28;20493;-57
2022/12/16 01:22:08;;;;;;;69.47;38.17;;;;;;;-3.06;97.01;100903.81;5016101;28;20026;-57
2022/12/16 01:24:33;;;;;;;58.47;38.47;;;;;;;-3.05;97.31;100916.72;5016160;28;20168;-58
2022/12/16 01:26:58;;;;;;;63.30;38.67;;;;;;;-3.01;97.32;100920.00;5028137;28;20029;-57
2022/12/16 01:29:24;;;;;;;62.27;38.80;;;;;;;-3.02;97.07;100915.72;5022714;28;20107;-58
2022/12/16 01:31:50;;;;;;;60.17;37.50;;;;;;;-2.99;96.84;100918.19;5022453;28;20125;-58
2022/12/16 01:34:15;;;;;;;61.50;37.23;;;;;;;-2.96;96.68;100915.44;5026209;28;20047;-60
2022/12/16 01:36:41;;;;;;;62.43;37.83;;;;;;;-2.93;97.15;100917.03;5025257;28;20092;-57
2022/12/16 01:39:08;;;;;;;65.13;39.30;;;;;;;-2.92;97.57;100922.16;5017273;28;20125;-57
2022/12/16 01:41:34;;;;;;;63.03;39.63;;;;;;;-2.87;98.02;100925.38;5021651;28;20037;-58
2022/12/16 01:44:14;;;;;;;61.40;39.37;;;;;;;-2.87;98.12;100932.31;5018426;28;20056;-59
2022/12/16 01:46:41;;;;;;;66.37;40.10;;;;;;;-2.88;97.87;100938.44;5019410;28;20396;-58
2022/12/16 01:49:13;;;;;;;61.50;40.17;;;;;;;-2.89;98.32;100945.38;5020907;28;20056;-59
2022/12/16 01:51:41;;;;;;;;;;;;;;;-2.84;97.71;100943.41;5028522;28;20026;-57
2022/12/16 01:54:33;;;;;;;68.03;41.20;;;;;;;-2.90;98.22;100942.84;5024890;28;20329;-57
2022/12/16 01:57:09;;;;;;;64.53;40.63;;;;;;;-2.89;98.12;100940.19;5018362;28;20469;-57
2022/12/16 01:59:38;;;;;;;64.30;39.27;;;;;;;-2.91;97.80;100941.19;5017620;28;20120;-57
2022/12/16 02:02:04;;;;;;;65.30;39.57;;;;;;;-2.89;97.75;100944.53;5021869;28;20029;-56
2022/12/16 02:04:29;;;;;;;60.30;39.13;;;;;;;-2.89;97.50;100953.16;5020901;28;20487;-57
2022/12/16 02:06:55;;;;;;;67.47;40.97;;;;;;;-2.91;97.94;100954.97;5020470;28;20635;-57
2022/12/16 02:09:21;;;;;;;61.43;41.07;;;;;;;-2.88;98.18;100956.59;5026738;28;20080;-56
2022/12/16 02:11:57;;;;;;;66.53;40.43;;;;;;;-2.88;98.58;100957.44;5020581;28;20073;-59
2022/12/16 02:15:04;;;;;;;62.53;40.90;;;;;;;-2.85;98.88;100957.28;5012652;28;20038;-58
2022/12/16 02:17:45;;;;;;;66.87;41.83;;;;;;;-2.85;98.39;100957.28;5017919;28;20056;-59
2022/12/16 02:20:34;;;;;;;63.47;39.83;;;;;;;-2.82;98.14;100961.50;5018469;28;20041;-60
2022/12/16 02:23:21;;;;;;;63.60;40.53;;;;;;;-2.80;98.65;100964.88;5021080;28;20461;-57
2022/12/16 02:26:23;;;;;;;65.00;40.80;;;;;;;-2.80;98.95;100966.63;5027998;28;20499;-58
2022/12/16 02:29:23;;;;;;;61.83;40.10;;;;;;;-2.87;98.53;100964.31;5021134;28;20037;-57
2022/12/16 02:31:57;;;;;;;65.03;39.80;;;;;;;-2.84;98.19;100960.75;5018713;28;20070;-58
2022/12/16 02:34:29;;;;;;;63.73;40.00;;;;;;;-2.85;98.29;100962.47;5019189;28;20037;-57
2022/12/16 02:37:06;;;;;;;63.45;40.03;;;;;;;-2.82;98.67;100965.88;5031019;28;20073;-58
2022/12/16 02:39:37;;;;;;;61.90;39.70;;;;;;;-2.79;98.38;100981.28;5020247;28;20038;-57
2022/12/16 02:42:15;;;;;;;63.53;40.47;;;;;;;-2.78;98.02;100975.16;5028344;28;20049;-58
2022/12/16 02:44:47;;;;;;;61.07;39.80;;;;;;;-2.81;98.32;100973.59;5022427;28;20465;-58
2022/12/16 02:47:12;;;;;;;62.13;39.97;;;;;;;-2.78;98.11;100977.75;5029518;28;20033;-58
2022/12/16 02:49:45;;;;;;;64.13;40.67;;;;;;;-2.78;98.12;100972.56;5023993;28;20120;-57
2022/12/16 02:52:12;;;;;;;63.13;40.27;;;;;;;-2.78;98.23;100973.44;5021702;28;20074;-56
2022/12/16 02:54:38;;;;;;;66.67;42.00;;;;;;;-2.76;98.50;100987.16;5024119;28;20037;-57
2022/12/16 02:57:40;;;;;;;66.60;41.97;;;;;;;-2.74;99.06;100984.50;5019380;28;20046;-58
2022/12/16 03:00:14;;;;;;;71.27;41.57;;;;;;;-2.75;99.03;100988.03;5014749;28;20532;-57
2022/12/16 03:02:48;;;;;;;68.70;42.63;;;;;;;-2.73;99.63;100986.19;5026406;28;20025;-57
2022/12/16 03:05:20;;;;;;;67.87;42.90;;;;;;;-2.81;99.87;100967.53;5026580;28;20029;-58
2022/12/16 03:07:47;;;;;;;68.97;42.83;;;;;;;-2.78;99.66;100977.75;5015618;28;20460;-59
2022/12/16 03:10:17;;;;;;;67.43;44.03;;;;;;;-2.80;100.00;100982.19;5022851;28;20048;-57
2022/12/16 03:12:44;;;;;;;72.73;42.97;;;;;;;-2.79;100.00;100983.88;5027275;28;20393;-58
2022/12/16 03:15:13;;;;;;;65.17;42.90;;;;;;;-2.81;100.00;100983.13;5027157;28;20033;-57
2022/12/16 03:17:38;;;;;;;69.97;45.07;;;;;;;-2.79;100.00;100994.25;5026090;28;20032;-58
2022/12/16 03:20:20;;;;;;;70.33;43.37;;;;;;;-2.78;100.00;100993.34;5015426;28;20532;-57
2022/12/16 03:22:49;;;;;;;73.60;45.40;;;;;;;-2.81;100.00;100993.50;5015171;28;20038;-59
2022/12/16 03:25:15;;;;;;;71.23;45.63;;;;;;;-2.81;100.00;101004.72;5027080;28;20033;-59
2022/12/16 03:27:48;;;;;;;73.63;45.77;;;;;;;-2.82;100.00;101002.19;5023130;28;20041;-57
2022/12/16 03:30:21;;;;;;;73.83;47.00;;;;;;;-2.85;100.00;100998.00;5021682;28;20034;-56
2022/12/16 03:33:14;;;;;;;78.03;47.10;;;;;;;-2.86;100.00;100997.13;5023269;28;20433;-58
2022/12/16 03:35:58;;;;;;;76.65;46.97;;;;;;;-2.84;100.00;100997.94;5024208;28;20029;-57
2022/12/16 03:38:26;;;;;;;74.83;46.07;;;;;;;-2.84;100.00;100997.94;5028988;28;20116;-58
2022/12/16 03:40:54;;;;;;;76.03;46.87;;;;;;;-2.85;100.00;101004.00;5024113;28;20091;-58
2022/12/16 03:43:19;;;;;;;74.43;46.70;;;;;;;-2.82;100.00;101008.22;5020502;28;20041;-60
2022/12/16 03:45:52;;;;;;;73.67;45.67;;;;;;;-2.82;100.00;101004.81;5030925;28;20036;-58
2022/12/16 03:48:22;;;;;;;77.47;45.70;;;;;;;-2.79;100.00;101015.03;5028529;28;20037;-57
2022/12/16 03:50:47;;;;;;;77.97;45.67;;;;;;;-2.75;100.00;101013.97;5025927;28;20056;-57
2022/12/16 03:53:12;;;;;;;76.53;45.87;;;;;;;-2.73;100.00;101022.53;5023832;28;20029;-56
2022/12/16 03:55:39;;;;;;;81.27;48.47;;;;;;;-2.77;100.00;101015.81;5028688;28;20045;-57
2022/12/16 03:58:04;;;;;;;74.37;45.83;;;;;;;-2.76;100.00;101020.09;5025368;28;20109;-58
2022/12/16 04:00:30;;;;;;;75.80;45.57;;;;;;;-2.76;100.00;101022.69;5026013;28;20038;-58
2022/12/16 04:02:55;;;;;;;80.30;47.53;;;;;;;-2.74;100.00;101026.91;5026203;28;20065;-57
2022/12/16 04:05:21;;;;;;;77.40;46.10;;;;;;;-2.70;100.00;101027.59;5025609;28;20030;-57
2022/12/16 04:07:47;;;;;;;81.13;46.67;;;;;;;-2.72;100.00;101029.41;5019622;28;20128;-58
2022/12/16 04:10:12;;;;;;;79.37;46.67;;;;;;;-2.74;100.00;101036.44;5015885;28;20381;-58
2022/12/16 04:27:23;;;;;;;79.17;45.70;;;;;;;-2.61;100.00;101058.31;5018723;28;20060;-57
2022/12/16 04:29:19;;;;;;;86.90;48.23;;;;;;;-2.61;100.00;101066.09;5023806;28;20033;-56
2022/12/16 04:31:44;;;;;;;81.20;46.50;;;;;;;-2.60;100.00;101060.03;5027055;28;20035;-57
2022/12/16 04:34:25;;;;;;;89.50;47.87;;;;;;;-2.55;100.00;101069.34;5017097;28;20090;-57
